createdAt,value
2022-10-29T00:00:53.385Z,4.32
2022-10-29T00:06:28.722Z,4.15
2022-10-29T00:11:59.735Z,4.05
2022-10-29T00:17:30.919Z,4.03
2022-10-29T00:23:02.224Z,4.03
2022-10-29T00:28:33.638Z,3.80
2022-10-29T00:34:04.631Z,4.07
2022-10-29T00:39:35.464Z,4.00
2022-10-29T00:45:06.917Z,4.03
2022-10-29T00:50:38.120Z,3.35
2022-10-29T00:56:09.726Z,4.10
2022-10-29T01:01:40.963Z,3.75
2022-10-29T01:07:12.445Z,4.60
2022-10-29T01:12:49.038Z,4.00
2022-10-29T01:18:23.515Z,4.38
2022-10-29T01:24:10.215Z,4.20
2022-10-29T01:30:00.106Z,4.30
2022-10-29T01:36:12.287Z,17.00
2022-10-29T01:42:04.574Z,10.75
2022-10-29T01:47:42.800Z,9.23
2022-10-29T01:53:13.868Z,8.45
2022-10-29T01:58:48.907Z,9.00
2022-10-29T02:04:43.000Z,8.85
2022-10-29T02:10:27.792Z,8.02
2022-10-29T02:15:59.986Z,7.80
2022-10-29T02:21:31.156Z,7.57
2022-10-29T02:27:02.144Z,7.43
2022-10-29T02:32:33.180Z,7.80
2022-10-29T02:38:04.383Z,7.47
2022-10-29T02:43:35.244Z,6.82
2022-10-29T02:49:07.545Z,7.05
2022-10-29T02:54:39.607Z,6.20
2022-10-29T03:00:12.516Z,6.43
2022-10-29T03:05:48.102Z,5.88
2022-10-29T03:11:20.744Z,5.97
2022-10-29T03:16:52.224Z,5.72
2022-10-29T03:22:23.228Z,5.57
2022-10-29T03:27:54.265Z,5.78
2022-10-29T03:33:26.789Z,5.40
2022-10-29T03:38:58.065Z,5.47
2022-10-29T03:44:29.146Z,4.93
2022-10-29T03:50:00.509Z,5.45
2022-10-29T03:55:31.929Z,4.90
2022-10-29T04:01:07.725Z,5.20
2022-10-29T04:06:38.500Z,4.50
2022-10-29T04:12:09.783Z,4.55
2022-10-29T04:17:41.138Z,4.88
2022-10-29T04:24:18.804Z,4.70
2022-10-29T04:29:04.379Z,4.40
2022-10-29T04:34:35.848Z,4.35
2022-10-29T04:40:08.065Z,4.53
2022-10-29T04:45:39.456Z,4.45
2022-10-29T04:51:25.767Z,3.97
2022-10-29T04:56:56.865Z,3.58
2022-10-29T05:02:27.898Z,3.92
2022-10-29T05:08:02.969Z,3.72
2022-10-29T05:13:34.167Z,4.13
2022-10-29T05:19:06.043Z,3.53
2022-10-29T05:24:37.282Z,3.40
2022-10-29T05:30:09.169Z,3.70
2022-10-29T05:35:40.227Z,3.83
2022-10-29T05:41:11.447Z,3.30
2022-10-29T05:46:42.738Z,3.53
2022-10-29T05:52:13.986Z,3.28
2022-10-29T05:57:45.137Z,3.13
2022-10-29T06:03:21.078Z,3.22
2022-10-29T06:08:53.486Z,2.85
2022-10-29T06:14:24.991Z,2.63
2022-10-29T06:19:55.994Z,3.10
2022-10-29T06:25:28.047Z,2.67
2022-10-29T06:30:59.018Z,2.53
2022-10-29T06:36:30.205Z,2.88
2022-10-29T06:42:01.216Z,2.50
2022-10-29T06:47:41.248Z,3.00
2022-10-29T06:53:13.747Z,2.30
2022-10-29T06:58:44.699Z,2.60
2022-10-29T07:04:15.606Z,2.38
2022-10-29T07:09:46.577Z,2.28
2022-10-29T07:15:17.590Z,2.28
2022-10-29T07:20:48.755Z,2.33
2022-10-29T07:26:19.810Z,2.42
2022-10-29T07:31:50.798Z,2.28
2022-10-29T07:37:21.668Z,2.60
2022-10-29T07:42:53.361Z,2.42
2022-10-29T07:48:24.980Z,2.85
2022-10-29T07:53:56.115Z,2.28
2022-10-29T07:59:27.296Z,2.50
2022-10-29T08:04:58.655Z,2.70
2022-10-29T08:10:30.909Z,7.05
2022-10-29T08:16:02.060Z,17.50
2022-10-29T08:21:33.363Z,9.48
2022-10-29T08:27:04.234Z,8.95
2022-10-29T08:32:35.821Z,6.93
2022-10-29T08:38:07.112Z,8.70
2022-10-29T08:43:50.986Z,7.05
2022-10-29T08:49:51.240Z,5.28
2022-10-29T08:55:36.799Z,6.78
2022-10-29T09:01:11.777Z,5.53
2022-10-29T09:07:00.605Z,5.95
2022-10-29T09:12:53.781Z,4.32
2022-10-29T09:18:27.917Z,4.22
2022-10-29T09:24:01.953Z,5.70
2022-10-29T09:29:52.133Z,4.30
2022-10-29T09:35:48.329Z,6.40
2022-10-29T09:41:20.358Z,5.13
2022-10-29T09:47:14.533Z,4.25
2022-10-29T09:58:20.974Z,3.88
2022-10-29T10:03:57.297Z,3.00
2022-10-29T10:09:28.899Z,2.97
2022-10-29T10:15:25.076Z,3.00
2022-10-29T10:21:33.745Z,3.42
2022-10-29T10:27:31.175Z,4.35
2022-10-29T10:33:32.821Z,4.45
2022-10-29T10:39:03.991Z,4.13
2022-10-29T10:44:35.562Z,3.40
2022-10-29T10:50:19.129Z,3.88
2022-10-29T10:55:54.372Z,5.13
2022-10-29T11:01:32.105Z,3.92
2022-10-29T11:07:07.071Z,5.40
2022-10-29T11:12:43.285Z,4.63
2022-10-29T11:18:31.182Z,5.00
2022-10-29T11:24:08.391Z,4.40
2022-10-29T11:29:53.806Z,4.60
2022-10-29T11:35:39.909Z,4.45
2022-10-29T11:41:19.939Z,4.63
2022-10-29T11:47:22.316Z,5.00
2022-10-29T11:52:56.023Z,4.00
2022-10-29T11:58:38.112Z,3.58
2022-10-29T12:04:24.332Z,3.85
2022-10-29T12:16:15.869Z,4.10
2022-10-29T12:21:49.936Z,4.43
2022-10-29T12:27:29.986Z,4.13
2022-10-29T12:33:23.545Z,4.07
2022-10-29T12:38:58.217Z,3.95
2022-10-29T12:44:47.186Z,4.20
2022-10-29T12:50:39.767Z,4.22
2022-10-29T13:02:26.237Z,4.15
2022-10-29T13:08:03.570Z,4.80
2022-10-29T13:13:50.391Z,5.00
2022-10-29T13:19:44.404Z,11.15
2022-10-29T13:25:51.564Z,6.63
2022-10-29T13:31:22.842Z,6.20
2022-10-29T13:36:54.005Z,7.90
2022-10-29T13:42:25.019Z,6.80
2022-10-29T13:48:00.782Z,6.43
2022-10-29T13:53:39.204Z,5.50
2022-10-29T13:59:18.766Z,11.50
2022-10-29T14:04:54.963Z,7.03
2022-10-29T14:10:36.900Z,8.48
2022-10-29T14:16:07.961Z,8.13
2022-10-29T14:21:39.682Z,7.05
2022-10-29T14:27:17.071Z,6.10
2022-10-29T14:32:48.362Z,6.55
2022-10-29T14:38:21.828Z,5.45
2022-10-29T14:44:08.970Z,5.35
2022-10-29T14:49:45.168Z,4.70
2022-10-29T14:55:27.110Z,4.82
2022-10-29T15:00:58.752Z,5.50
2022-10-29T15:06:30.346Z,5.10
2022-10-29T15:12:18.159Z,5.70
2022-10-29T15:18:00.378Z,7.45
2022-10-29T15:23:42.447Z,6.40
2022-10-29T15:29:13.888Z,7.90
2022-10-29T15:34:53.991Z,4.55
2022-10-29T15:40:26.108Z,4.88
2022-10-29T15:45:57.888Z,4.65
2022-10-29T15:51:30.185Z,4.43
2022-10-29T15:57:01.083Z,5.32
2022-10-29T16:02:31.945Z,5.97
2022-10-29T16:08:04.036Z,12.93
2022-10-29T16:16:05.018Z,7.68
2022-10-29T16:21:36.630Z,5.07
2022-10-29T16:27:15.499Z,7.20
2022-10-29T16:32:48.309Z,5.85
2022-10-29T16:38:19.728Z,7.05
2022-10-29T16:43:51.128Z,6.45
2022-10-29T16:49:22.186Z,14.55
2022-10-29T16:54:53.815Z,40.53
2022-10-29T17:00:32.076Z,24.55
2022-10-29T17:06:08.377Z,17.65
2022-10-29T17:11:39.251Z,13.18
2022-10-29T17:17:10.165Z,13.15
2022-10-29T17:22:41.233Z,11.93
2022-10-29T17:28:12.217Z,12.35
2022-10-29T17:33:43.263Z,11.73
2022-10-29T17:39:15.946Z,10.70
2022-10-29T17:44:47.345Z,10.32
2022-10-29T17:50:18.614Z,9.80
2022-10-29T17:55:53.412Z,9.85
2022-10-29T18:01:26.874Z,8.93
2022-10-29T18:06:58.555Z,9.23
2022-10-29T18:12:29.684Z,8.23
2022-10-29T18:18:03.331Z,8.20
2022-10-29T18:23:34.844Z,8.27
2022-10-29T18:29:09.548Z,7.65
2022-10-29T18:34:41.589Z,8.00
2022-10-29T18:40:13.275Z,6.88
2022-10-29T18:45:44.674Z,7.70
2022-10-29T18:51:24.453Z,7.43
2022-10-29T18:56:56.788Z,6.97
2022-10-29T19:02:29.124Z,7.22
2022-10-29T19:08:00.917Z,6.95
2022-10-29T19:13:32.898Z,6.65
2022-10-29T19:19:08.098Z,7.30
2022-10-29T19:24:41.277Z,7.20
2022-10-29T19:30:13.760Z,6.18
2022-10-29T19:35:46.069Z,6.47
2022-10-29T19:41:19.425Z,5.82
2022-10-29T19:46:51.673Z,6.20
2022-10-29T19:52:23.570Z,5.93
2022-10-29T19:57:54.709Z,6.53
2022-10-29T20:03:26.071Z,6.25
2022-10-29T20:08:57.625Z,5.88
2022-10-29T20:14:29.339Z,5.93
2022-10-29T20:20:00.741Z,6.22
2022-10-29T20:25:31.896Z,6.40
2022-10-29T20:31:18.619Z,5.80
2022-10-29T20:36:49.723Z,5.43
2022-10-29T20:42:20.812Z,5.25
2022-10-29T20:47:52.098Z,5.45
2022-10-29T20:53:23.445Z,5.38
2022-10-29T20:58:54.567Z,5.10
2022-10-29T21:04:25.654Z,5.25
2022-10-29T21:09:56.731Z,5.10
2022-10-29T21:15:27.920Z,5.45
2022-10-29T21:21:03.709Z,5.65
2022-10-29T21:26:34.647Z,5.28
2022-10-29T21:32:06.051Z,5.45
2022-10-29T21:37:37.626Z,4.75
2022-10-29T21:43:08.639Z,5.30
2022-10-29T21:48:40.024Z,5.00
2022-10-29T21:54:11.049Z,5.20
2022-10-29T21:59:41.950Z,5.28
2022-10-29T22:05:13.197Z,5.05
2022-10-29T22:10:44.076Z,4.97
2022-10-29T22:16:15.252Z,4.65
2022-10-29T22:21:46.365Z,5.40
2022-10-29T22:27:17.363Z,5.25
2022-10-29T22:32:48.620Z,4.65
2022-10-29T22:38:20.446Z,4.15
2022-10-29T22:43:51.334Z,5.25
2022-10-29T22:49:22.198Z,4.90
2022-10-29T22:54:53.087Z,5.28
2022-10-29T23:00:24.403Z,4.80
2022-10-29T23:06:00.453Z,4.68
2022-10-29T23:11:35.199Z,5.47
2022-10-29T23:17:06.745Z,4.95
2022-10-29T23:22:38.105Z,4.85
2022-10-29T23:28:09.813Z,4.93
2022-10-29T23:33:45.309Z,4.90
2022-10-29T23:39:16.452Z,4.82
2022-10-29T23:44:47.460Z,4.85
2022-10-29T23:50:18.550Z,4.93
2022-10-29T23:55:50.033Z,4.63
